createdAt,value
2018-09-17T00:00:43.943Z,1003.25
2018-09-17T00:01:41.591Z,1003.14
2018-09-17T00:02:40.715Z,1003.19
2018-09-17T00:03:39.446Z,1003.24
2018-09-17T00:04:37.795Z,1003.24
2018-09-17T00:05:36.091Z,1003.15
2018-09-17T00:06:34.926Z,1003.24
2018-09-17T00:07:45.729Z,1003.22
2018-09-17T00:08:45.751Z,1003.24
2018-09-17T00:09:44.481Z,1003.25
2018-09-17T00:10:46.430Z,1003.22
2018-09-17T00:11:58.084Z,1003.24
2018-09-17T00:12:58.300Z,1003.34
2018-09-17T00:13:59.572Z,1003.24
2018-09-17T00:15:00.771Z,1003.36
2018-09-17T00:15:58.854Z,1003.19
2018-09-17T00:16:56.617Z,1003.22
2018-09-17T00:17:57.221Z,1003.17
2018-09-17T00:18:55.334Z,1003.19
2018-09-17T00:19:52.882Z,1003.19
2018-09-17T00:20:52.229Z,1003.18
2018-09-17T00:22:03.831Z,1003.15
2018-09-17T00:23:00.304Z,1003.19
2018-09-17T00:24:02.834Z,1003.17
2018-09-17T00:25:05.805Z,1003.21
2018-09-17T00:26:03.986Z,1003.22
2018-09-17T00:27:01.160Z,1003.15
2018-09-17T00:28:02.562Z,1003.16
2018-09-17T00:29:01.221Z,1003.11
2018-09-17T00:30:02.954Z,1003.13
2018-09-17T00:31:01.796Z,1003.12
2018-09-17T00:31:57.540Z,1003.13
2018-09-17T00:32:56.098Z,1003.15
2018-09-17T00:33:57.157Z,1003.1
2018-09-17T00:35:12.325Z,1003.16
2018-09-17T00:36:09.816Z,1003.16
2018-09-17T00:37:08.623Z,1003.15
2018-09-17T00:38:06.174Z,1003.16
2018-09-17T00:39:13.992Z,1003.19
2018-09-17T00:40:15.536Z,1003.22
2018-09-17T00:41:13.385Z,1003.22
2018-09-17T00:42:13.840Z,1003.16
2018-09-17T00:43:08.997Z,1003.09
2018-09-17T00:44:13.061Z,1003.18
2018-09-17T00:45:30.564Z,1003.16
2018-09-17T00:46:28.170Z,1003.15
2018-09-17T00:47:27.004Z,1003.21
2018-09-17T00:48:23.663Z,1003.18
2018-09-17T00:49:32.100Z,1003.18
2018-09-17T00:50:32.138Z,1003.18
2018-09-17T00:51:30.502Z,1003.13
2018-09-17T00:52:28.740Z,1003.15
2018-09-17T00:53:29.385Z,1003.22
2018-09-17T00:54:28.950Z,1003.16
2018-09-17T00:55:24.531Z,1003.16
2018-09-17T00:56:38.659Z,1003.16
2018-09-17T00:57:36.276Z,1003.16
2018-09-17T00:58:35.151Z,1003.15
2018-09-17T00:59:32.759Z,1003.09
2018-09-17T01:00:45.885Z,1003.15
2018-09-17T01:01:45.316Z,1003.15
2018-09-17T01:02:44.688Z,1003.15
2018-09-17T01:03:44.300Z,1003.18
2018-09-17T01:04:50.397Z,1003.12
2018-09-17T01:05:48.292Z,1003.18
2018-09-17T01:06:50.666Z,1003.09
2018-09-17T01:07:45.370Z,1003.15
2018-09-17T01:08:59.817Z,1003.16
2018-09-17T01:09:55.671Z,1003.24
2018-09-17T01:10:54.722Z,1003.24
2018-09-17T01:11:54.622Z,1003.22
2018-09-17T01:12:54.965Z,1003.31
2018-09-17T01:13:53.483Z,1003.24
2018-09-17T01:14:57.772Z,1003.25
2018-09-17T01:15:56.164Z,1003.21
2018-09-17T01:16:52.289Z,1003.25
2018-09-17T01:17:52.776Z,1003.19
2018-09-17T01:18:47.606Z,1003.22
2018-09-17T01:19:48.467Z,1003.24
2018-09-17T01:21:00.155Z,1003.24
2018-09-17T01:21:57.265Z,1003.24
2018-09-17T01:22:59.037Z,1003.24
2018-09-17T01:23:57.118Z,1003.25
2018-09-17T01:24:56.347Z,1003.31
2018-09-17T01:25:58.403Z,1003.25
2018-09-17T01:26:58.840Z,1003.3
2018-09-17T01:28:05.391Z,1003.25
2018-09-17T01:29:03.815Z,1003.31
2018-09-17T01:30:02.428Z,1003.35
2018-09-17T01:30:57.133Z,1003.21
2018-09-17T01:32:10.951Z,1003.25
2018-09-17T01:33:08.210Z,1003.21
2018-09-17T01:34:12.678Z,1003.22
2018-09-17T01:35:10.223Z,1003.21
2018-09-17T01:36:11.598Z,1003.31
2018-09-17T01:37:12.075Z,1003.31
2018-09-17T01:38:15.138Z,1003.3
2018-09-17T01:39:13.473Z,1003.3
2018-09-17T01:40:13.300Z,1003.3
2018-09-17T01:41:12.988Z,1003.25
2018-09-17T01:42:09.440Z,1003.16
2018-09-17T01:43:08.316Z,1003.21
2018-09-17T01:44:21.028Z,1003.18
2018-09-17T01:45:16.910Z,1003.13
2018-09-17T01:46:19.100Z,1003.15
2018-09-17T01:47:22.756Z,1003.09
2018-09-17T01:48:23.167Z,1003.07
2018-09-17T01:49:21.165Z,1003.07
2018-09-17T01:50:22.447Z,1003.12
2018-09-17T01:51:27.929Z,1003.07
2018-09-17T01:52:26.622Z,1003.06
2018-09-17T01:53:28.755Z,1003.09
2018-09-17T01:54:27.012Z,1003.09
2018-09-17T01:55:25.409Z,1003.1
2018-09-17T01:56:21.105Z,1003.07
2018-09-17T01:57:31.444Z,1003.15
2018-09-17T01:58:30.358Z,1003.09
2018-09-17T01:59:33.355Z,1003.07
2018-09-17T02:00:29.738Z,1003.06
2018-09-17T02:01:30.635Z,1003.07
2018-09-17T02:02:28.470Z,1003.1
2018-09-17T02:03:26.095Z,1003.13
2018-09-17T02:04:25.655Z,1003.09
2018-09-17T02:05:25.933Z,1003.04
2018-09-17T02:06:24.472Z,1002.94
2018-09-17T02:07:28.274Z,1002.97
2018-09-17T02:08:25.999Z,1002.97
2018-09-17T02:09:43.108Z,1002.98
2018-09-17T02:10:37.476Z,1002.92
2018-09-17T02:11:37.878Z,1002.94
2018-09-17T02:12:36.791Z,1002.94
2018-09-17T02:13:39.133Z,1002.95
2018-09-17T02:14:37.390Z,1002.95
2018-09-17T02:15:35.483Z,1002.98
2018-09-17T02:16:34.851Z,1002.97
2018-09-17T02:17:34.354Z,1002.9
2018-09-17T02:18:33.755Z,1002.9
2018-09-17T02:19:45.329Z,1002.88
2018-09-17T02:20:40.218Z,1002.83
2018-09-17T02:21:40.584Z,1002.83
2018-09-17T02:22:38.414Z,1002.77
2018-09-17T02:23:39.123Z,1002.8
2018-09-17T02:24:43.570Z,1002.76
2018-09-17T02:25:43.833Z,1002.8
2018-09-17T02:26:47.880Z,1002.77
2018-09-17T02:27:46.171Z,1002.76
2018-09-17T02:28:49.112Z,1002.82
2018-09-17T02:29:47.032Z,1002.8
2018-09-17T02:30:59.133Z,1002.8
2018-09-17T02:31:53.943Z,1002.8
2018-09-17T02:32:55.119Z,1002.8
2018-09-17T02:33:52.982Z,1002.82
2018-09-17T02:34:52.778Z,1002.83
2018-09-17T02:35:48.257Z,1002.79
2018-09-17T02:36:51.848Z,1002.79
2018-09-17T02:38:07.750Z,1002.82
2018-09-17T02:39:13.308Z,1002.9
2018-09-17T02:40:09.004Z,1002.83
2018-09-17T02:41:08.383Z,1002.82
2018-09-17T02:42:05.630Z,1002.85
2018-09-17T02:43:04.086Z,1002.85
2018-09-17T02:44:01.238Z,1002.8
2018-09-17T02:44:59.404Z,1002.79
2018-09-17T02:46:03.061Z,1002.82
2018-09-17T02:47:19.946Z,1002.84
2018-09-17T02:48:17.689Z,1002.88
2018-09-17T02:49:32.425Z,1002.86
2018-09-17T02:50:31.546Z,1002.89
2018-09-17T02:51:30.949Z,1002.95
2018-09-17T02:52:28.715Z,1002.97
2018-09-17T02:53:28.751Z,1002.95
2018-09-17T02:54:26.937Z,1002.94
2018-09-17T02:55:31.375Z,1003
2018-09-17T02:56:26.791Z,1002.95
2018-09-17T02:57:42.400Z,1002.94
2018-09-17T02:58:36.766Z,1003
2018-09-17T02:59:43.574Z,1002.94
2018-09-17T03:00:45.566Z,1003.01
2018-09-17T03:01:56.097Z,1002.94
2018-09-17T03:02:50.751Z,1003.03
2018-09-17T03:03:51.162Z,1003.18
2018-09-17T03:04:53.904Z,1003.18
2018-09-17T03:05:53.473Z,1003.17
2018-09-17T03:06:52.275Z,1003.19
2018-09-17T03:07:55.239Z,1003.23
2018-09-17T03:09:06.977Z,1003.37
2018-09-17T03:10:01.706Z,1003.26
2018-09-17T03:11:07.920Z,1003.15
2018-09-17T03:12:06.948Z,1003.19
2018-09-17T03:13:08.317Z,1003.2
2018-09-17T03:14:09.747Z,1003.15
2018-09-17T03:15:07.340Z,1003.22
2018-09-17T03:16:12.848Z,1003.31
2018-09-17T03:17:11.727Z,1003.23
2018-09-17T03:18:10.898Z,1003.1
2018-09-17T03:19:14.208Z,1003.15
2018-09-17T03:20:19.228Z,1003.22
2018-09-17T03:21:16.909Z,1003.12
2018-09-17T03:22:19.297Z,1003.06
2018-09-17T03:23:32.075Z,1003.12
2018-09-17T03:24:35.190Z,1003.15
2018-09-17T03:25:36.027Z,1003.13
2018-09-17T03:26:33.497Z,1003.07
2018-09-17T03:27:28.001Z,1003.17
2018-09-17T03:28:31.221Z,1003.13
2018-09-17T03:29:34.161Z,1003.09
2018-09-17T03:30:31.850Z,1003.13
2018-09-17T03:31:33.988Z,1003.2
2018-09-17T03:32:28.453Z,1003.13
2018-09-17T03:33:29.409Z,1003.19
2018-09-17T03:34:24.279Z,1003.2
2018-09-17T03:35:28.895Z,1003.16
2018-09-17T03:36:26.900Z,1003.14
2018-09-17T03:37:30.486Z,1003.13
2018-09-17T03:38:25.189Z,1003.09
2018-09-17T03:39:22.344Z,1003.04
2018-09-17T03:40:19.480Z,1003.14
2018-09-17T03:41:17.301Z,1003.16
2018-09-17T03:42:31.293Z,1003.26
2018-09-17T03:43:29.448Z,1003.19
2018-09-17T03:44:28.814Z,1003.23
2018-09-17T03:45:32.135Z,1003.25
2018-09-17T03:46:31.938Z,1003.23
2018-09-17T03:47:35.409Z,1003.31
2018-09-17T03:48:41.444Z,1003.22
2018-09-17T03:49:40.445Z,1003.35
2018-09-17T03:50:51.805Z,1003.26
2018-09-17T03:52:01.119Z,1003.4
2018-09-17T03:53:16.232Z,1003.32
2018-09-17T03:54:23.897Z,1003.34
2018-09-17T03:55:21.721Z,1003.32
2018-09-17T03:56:23.185Z,1003.37
2018-09-17T03:57:25.357Z,1003.22
2018-09-17T03:58:24.335Z,1003.22
2018-09-17T03:59:23.637Z,1003.19
2018-09-17T04:00:23.407Z,1003.13
2018-09-17T04:01:25.150Z,1003.14
2018-09-17T04:02:23.001Z,1003.1
2018-09-17T04:03:21.341Z,1003.16
2018-09-17T04:04:18.814Z,1003.19
2018-09-17T04:05:15.295Z,1003.16
2018-09-17T04:06:17.549Z,1003.17
2018-09-17T04:07:30.212Z,1003.14
2018-09-17T04:08:28.113Z,1003.14
2018-09-17T04:09:30.344Z,1003.11
2018-09-17T04:10:35.949Z,1003.17
2018-09-17T04:11:34.249Z,1003.09
2018-09-17T04:12:36.295Z,1003.03
2018-09-17T04:13:35.674Z,1003.03
2018-09-17T04:14:36.556Z,1003.04
2018-09-17T04:15:34.301Z,1002.97
2018-09-17T04:16:04.592Z,1002.92
2018-09-17T04:17:05.592Z,1002.97
2018-09-17T04:18:00.612Z,1003.03
2018-09-17T04:19:13.249Z,1003
2018-09-17T04:20:15.906Z,1003.01
2018-09-17T04:21:18.253Z,1003.01
2018-09-17T04:22:21.584Z,1003.04
2018-09-17T04:23:21.185Z,1003.03
2018-09-17T04:24:24.618Z,1002.91
2018-09-17T04:25:31.043Z,1003.01
2018-09-17T04:26:32.284Z,1002.98
2018-09-17T04:27:31.891Z,1003.01
2018-09-17T04:28:31.311Z,1003
2018-09-17T04:29:30.433Z,1002.97
2018-09-17T04:30:30.867Z,1002.97
2018-09-17T04:31:51.036Z,1003.03
2018-09-17T04:32:45.125Z,1003.04
2018-09-17T04:33:45.372Z,1003.03
2018-09-17T04:34:44.325Z,1003.07
2018-09-17T04:35:42.074Z,1003.09
2018-09-17T04:36:43.916Z,1003.07
2018-09-17T04:37:47.770Z,1003.12
2018-09-17T04:38:49.755Z,1003.1
2018-09-17T04:39:54.655Z,1003.2
2018-09-17T04:40:55.050Z,1003.09
2018-09-17T04:41:53.009Z,1003.09
2018-09-17T04:43:06.508Z,1003.13
2018-09-17T04:44:18.668Z,1003.09
2018-09-17T04:45:13.146Z,1003.09
2018-09-17T04:46:15.289Z,1002.98
2018-09-17T04:47:16.250Z,1003.01
2018-09-17T04:48:16.927Z,1003.01
2018-09-17T04:49:15.235Z,1003.04
2018-09-17T04:50:14.304Z,1003.01
2018-09-17T04:51:14.277Z,1003.03
2018-09-17T04:52:16.382Z,1003.01
2018-09-17T04:53:14.253Z,1003.04
2018-09-17T04:54:12.162Z,1003.04
2018-09-17T04:55:25.726Z,1003.1
2018-09-17T04:56:20.440Z,1003.07
2018-09-17T04:57:19.085Z,1003.07
2018-09-17T04:58:14.489Z,1003.13
2018-09-17T04:59:16.174Z,1003.17
2018-09-17T05:00:18.744Z,1003.09
2018-09-17T05:01:17.672Z,1003.09
2018-09-17T05:02:17.303Z,1003.13
2018-09-17T05:03:17.397Z,1003.07
2018-09-17T05:04:18.791Z,1003.1
2018-09-17T05:05:18.135Z,1003.13
2018-09-17T05:06:24.580Z,1003.22
2018-09-17T05:07:37.140Z,1003.13
2018-09-17T05:08:32.567Z,1003.16
2018-09-17T05:09:30.908Z,1003.16
2018-09-17T05:10:34.354Z,1003.22
2018-09-17T05:11:32.230Z,1003.25
2018-09-17T05:12:30.097Z,1003.23
2018-09-17T05:13:27.920Z,1003.13
2018-09-17T05:14:26.251Z,1003.22
2018-09-17T05:15:24.637Z,1003.17
2018-09-17T05:16:26.098Z,1003.17
2018-09-17T05:17:29.698Z,1003.22
2018-09-17T05:18:28.894Z,1003.22
2018-09-17T05:19:40.694Z,1003.31
2018-09-17T05:20:35.108Z,1003.17
2018-09-17T05:21:33.459Z,1003.16
2018-09-17T05:22:44.882Z,1003.17
2018-09-17T05:23:43.667Z,1003.25
2018-09-17T05:24:41.681Z,1003.19
2018-09-17T05:25:40.615Z,1003.17
2018-09-17T05:26:41.899Z,1003.17
2018-09-17T05:27:36.871Z,1003.23
2018-09-17T05:28:37.483Z,1003.17
2018-09-17T05:29:41.073Z,1003.25
2018-09-17T05:30:44.016Z,1003.2
2018-09-17T05:31:41.448Z,1003.19
2018-09-17T05:32:45.087Z,1003.25
2018-09-17T05:34:07.051Z,1003.23
2018-09-17T05:35:05.947Z,1003.32
2018-09-17T05:36:05.129Z,1003.31
2018-09-17T05:37:07.267Z,1003.22
2018-09-17T05:38:04.989Z,1003.34
2018-09-17T05:39:04.453Z,1003.22
2018-09-17T05:40:02.827Z,1003.26
2018-09-17T05:41:04.880Z,1003.32
2018-09-17T05:42:05.537Z,1003.34
2018-09-17T05:43:12.399Z,1003.43
2018-09-17T05:44:13.065Z,1003.44
2018-09-17T05:45:08.364Z,1003.37
2018-09-17T05:46:09.300Z,1003.46
2018-09-17T05:47:13.845Z,1003.49
2018-09-17T05:48:30.499Z,1003.5
2018-09-17T05:49:29.351Z,1003.59
2018-09-17T05:50:27.660Z,1003.64
2018-09-17T05:51:39.572Z,1003.59
2018-09-17T05:52:35.767Z,1003.67
2018-09-17T05:53:47.487Z,1003.59
2018-09-17T05:54:50.434Z,1003.58
2018-09-17T05:55:50.593Z,1003.59
2018-09-17T05:56:48.313Z,1003.55
2018-09-17T05:57:49.980Z,1003.59
2018-09-17T05:59:00.445Z,1003.65
2018-09-17T06:00:02.873Z,1003.62
2018-09-17T06:01:02.918Z,1003.59
2018-09-17T06:02:04.770Z,1003.61
2018-09-17T06:03:06.515Z,1003.56
2018-09-17T06:04:04.167Z,1003.7
2018-09-17T06:05:02.879Z,1003.58
2018-09-17T06:06:00.909Z,1003.7
2018-09-17T06:07:02.923Z,1003.64
2018-09-17T06:08:02.148Z,1003.61
2018-09-17T06:09:01.810Z,1003.59
2018-09-17T06:10:00.076Z,1003.55
2018-09-17T06:11:12.092Z,1003.65
2018-09-17T06:12:10.585Z,1003.68
2018-09-17T06:13:09.983Z,1003.67
2018-09-17T06:14:13.433Z,1003.56
2018-09-17T06:15:12.486Z,1003.7
2018-09-17T06:16:10.273Z,1003.67
2018-09-17T06:17:18.733Z,1003.65
2018-09-17T06:18:17.607Z,1003.7
2018-09-17T06:19:15.653Z,1003.64
2018-09-17T06:20:12.554Z,1003.7
2018-09-17T06:21:29.059Z,1003.69
2018-09-17T06:22:31.614Z,1003.69
2018-09-17T06:23:30.206Z,1003.71
2018-09-17T06:24:28.525Z,1003.69
2018-09-17T06:25:27.456Z,1003.77
2018-09-17T06:26:36.445Z,1003.75
2018-09-17T06:27:39.573Z,1003.75
2018-09-17T06:28:37.172Z,1003.78
2018-09-17T06:29:36.743Z,1003.75
2018-09-17T06:30:33.459Z,1003.8
2018-09-17T06:31:34.849Z,1003.77
2018-09-17T06:32:42.289Z,1003.77
2018-09-17T06:33:58.918Z,1003.75
2018-09-17T06:34:53.198Z,1003.74
2018-09-17T06:35:56.646Z,1003.77
2018-09-17T06:37:56.141Z,1003.81
2018-09-17T06:38:57.888Z,1003.83
2018-09-17T06:40:01.616Z,1003.92
2018-09-17T06:41:00.574Z,1003.86
2018-09-17T06:42:06.922Z,1003.89
2018-09-17T06:43:02.046Z,1003.96
2018-09-17T06:43:59.688Z,1003.96
2018-09-17T06:45:07.755Z,1003.98
2018-09-17T06:46:28.284Z,1003.9
2018-09-17T06:47:30.852Z,1004.03
2018-09-17T06:48:28.732Z,1003.95
2018-09-17T06:49:27.318Z,1003.98
2018-09-17T06:50:29.491Z,1003.93
2018-09-17T06:51:29.317Z,1003.92
2018-09-17T06:52:32.988Z,1003.87
2018-09-17T06:53:33.149Z,1003.9
2018-09-17T06:54:28.920Z,1003.92
2018-09-17T06:55:31.226Z,1003.99
2018-09-17T06:56:28.206Z,1003.92
2018-09-17T06:57:40.893Z,1003.86
2018-09-17T06:58:39.358Z,1003.83
2018-09-17T06:59:48.136Z,1003.81
2018-09-17T07:00:48.160Z,1003.79
2018-09-17T07:01:50.590Z,1003.83
2018-09-17T07:02:51.259Z,1003.74
2018-09-17T07:03:49.203Z,1003.86
2018-09-17T07:04:50.103Z,1003.79
2018-09-17T07:05:48.806Z,1003.76
2018-09-17T07:06:50.799Z,1003.83
2018-09-17T07:07:51.312Z,1003.77
2018-09-17T07:09:04.082Z,1003.8
2018-09-17T07:10:06.368Z,1003.76
2018-09-17T07:11:05.082Z,1003.74
2018-09-17T07:12:02.874Z,1003.8
2018-09-17T07:13:03.250Z,1003.77
2018-09-17T07:14:00.671Z,1003.85
2018-09-17T07:15:00.374Z,1003.86
2018-09-17T07:16:03.906Z,1003.85
2018-09-17T07:17:08.483Z,1003.76
2018-09-17T07:18:06.781Z,1003.74
2018-09-17T07:19:04.910Z,1003.79
2018-09-17T07:20:02.372Z,1003.85
2018-09-17T07:21:09.108Z,1003.82
2018-09-17T07:22:07.774Z,1003.74
2018-09-17T07:23:21.081Z,1003.79
2018-09-17T07:24:16.795Z,1003.7
2018-09-17T07:25:17.012Z,1003.76
2018-09-17T07:26:16.641Z,1003.71
2018-09-17T07:27:15.968Z,1003.69
2018-09-17T07:28:13.694Z,1003.67
2018-09-17T07:29:11.912Z,1003.64
2018-09-17T07:30:07.970Z,1003.66
2018-09-17T07:31:11.634Z,1003.69
2018-09-17T07:32:14.461Z,1003.69
2018-09-17T07:33:20.164Z,1003.72
2018-09-17T07:34:35.410Z,1003.72
2018-09-17T07:35:34.660Z,1003.69
2018-09-17T07:36:34.933Z,1003.69
2018-09-17T07:37:38.676Z,1003.63
2018-09-17T07:38:42.558Z,1003.66
2018-09-17T07:39:41.882Z,1003.61
2018-09-17T07:40:39.618Z,1003.63
2018-09-17T07:41:38.021Z,1003.7
2018-09-17T07:42:41.294Z,1003.64
2018-09-17T07:43:40.779Z,1003.7
2018-09-17T07:44:55.372Z,1003.67
2018-09-17T07:45:51.496Z,1003.72
2018-09-17T07:46:49.449Z,1003.73
2018-09-17T07:47:48.427Z,1003.72
2018-09-17T07:48:46.362Z,1003.67
2018-09-17T07:49:48.031Z,1003.69
2018-09-17T07:50:48.288Z,1003.72
2018-09-17T07:51:54.257Z,1003.79
2018-09-17T07:52:53.544Z,1003.76
2018-09-17T07:53:56.517Z,1003.72
2018-09-17T07:54:55.052Z,1003.7
2018-09-17T07:55:53.426Z,1003.7
2018-09-17T07:56:55.639Z,1003.78
2018-09-17T07:57:53.603Z,1003.7
2018-09-17T07:58:52.765Z,1003.66
2018-09-17T07:59:54.377Z,1003.66
2018-09-17T08:00:49.353Z,1003.76
2018-09-17T08:02:04.585Z,1003.72
2018-09-17T08:03:00.526Z,1003.73
2018-09-17T08:03:58.654Z,1003.75
2018-09-17T08:04:56.874Z,1003.76
2018-09-17T08:05:56.308Z,1003.81
2018-09-17T08:06:55.267Z,1003.85
2018-09-17T08:07:54.785Z,1003.85
2018-09-17T08:08:53.930Z,1003.79
2018-09-17T08:09:51.528Z,1003.84
2018-09-17T08:10:51.555Z,1003.82
2018-09-17T08:11:49.886Z,1003.87
2018-09-17T08:12:45.797Z,1003.94
2018-09-17T08:13:57.695Z,1003.9
2018-09-17T08:14:51.992Z,1003.84
2018-09-17T08:15:50.453Z,1003.72
2018-09-17T08:16:47.114Z,1003.81
2018-09-17T08:17:48.530Z,1003.76
2018-09-17T08:18:46.125Z,1003.72
2018-09-17T08:19:44.251Z,1003.7
2018-09-17T08:20:41.826Z,1003.76
2018-09-17T08:21:42.088Z,1003.73
2018-09-17T08:22:38.816Z,1003.7
2018-09-17T08:23:50.557Z,1003.69
2018-09-17T08:24:49.592Z,1003.76
2018-09-17T08:25:48.999Z,1003.73
2018-09-17T08:26:47.656Z,1003.72
2018-09-17T08:27:45.622Z,1003.67
2018-09-17T08:28:43.248Z,1003.68
2018-09-17T08:29:41.277Z,1003.68
2018-09-17T08:30:39.236Z,1003.63
2018-09-17T08:31:39.278Z,1003.63
2018-09-17T08:32:33.866Z,1003.66
2018-09-17T08:33:31.756Z,1003.6
2018-09-17T08:34:29.737Z,1003.6
2018-09-17T08:35:30.238Z,1003.59
2018-09-17T08:36:42.245Z,1003.54
2018-09-17T08:37:38.621Z,1003.59
2018-09-17T08:38:40.099Z,1003.53
2018-09-17T08:39:38.994Z,1003.62
2018-09-17T08:40:38.925Z,1003.59
2018-09-17T08:41:41.432Z,1003.56
2018-09-17T08:42:39.562Z,1003.62
2018-09-17T08:43:34.258Z,1003.56
2018-09-17T08:44:36.563Z,1003.62
2018-09-17T08:45:35.793Z,1003.63
2018-09-17T08:46:34.015Z,1003.67
2018-09-17T08:47:32.343Z,1003.62
2018-09-17T08:48:32.820Z,1003.69
2018-09-17T08:49:31.043Z,1003.63
2018-09-17T08:50:27.953Z,1003.65
2018-09-17T08:51:40.370Z,1003.63
2018-09-17T08:52:37.272Z,1003.65
2018-09-17T08:53:35.116Z,1003.67
2018-09-17T08:54:33.865Z,1003.63
2018-09-17T08:55:31.565Z,1003.65
2018-09-17T08:56:36.142Z,1003.63
2018-09-17T08:57:36.399Z,1003.59
2018-09-17T08:58:40.820Z,1003.68
2018-09-17T08:59:45.876Z,1003.62
2018-09-17T09:00:43.553Z,1003.56
2018-09-17T09:01:41.293Z,1003.65
2018-09-17T09:02:38.911Z,1003.6
2018-09-17T09:03:51.404Z,1003.73
2018-09-17T09:04:49.067Z,1003.7
2018-09-17T09:05:46.422Z,1003.68
2018-09-17T09:06:44.386Z,1003.69
2018-09-17T09:07:41.815Z,1003.65
2018-09-17T09:08:41.942Z,1003.73
2018-09-17T09:09:41.647Z,1003.68
2018-09-17T09:10:43.987Z,1003.62
2018-09-17T09:11:47.352Z,1003.6
2018-09-17T09:12:45.034Z,1003.69
2018-09-17T09:14:01.190Z,1003.71
2018-09-17T09:14:57.961Z,1003.69
2018-09-17T09:15:55.448Z,1003.63
2018-09-17T09:17:01.119Z,1003.75
2018-09-17T09:18:00.711Z,1003.62
2018-09-17T09:18:59.090Z,1003.62
2018-09-17T09:19:56.959Z,1003.62
2018-09-17T09:20:54.303Z,1003.65
2018-09-17T09:21:52.436Z,1003.65
2018-09-17T09:22:52.704Z,1003.51
2018-09-17T09:23:49.191Z,1003.65
2018-09-17T09:25:00.355Z,1003.51
2018-09-17T09:25:56.425Z,1003.6
2018-09-17T09:26:54.864Z,1003.59
2018-09-17T09:28:05.368Z,1003.63
2018-09-17T09:29:11.431Z,1003.53
2018-09-17T09:30:12.031Z,1003.59
2018-09-17T09:31:12.168Z,1003.48
2018-09-17T09:32:15.509Z,1003.54
2018-09-17T09:33:15.632Z,1003.51
2018-09-17T09:34:22.386Z,1003.53
2018-09-17T09:35:23.454Z,1003.54
2018-09-17T09:36:22.637Z,1003.47
2018-09-17T09:37:20.990Z,1003.47
2018-09-17T09:38:34.095Z,1003.51
2018-09-17T09:39:30.594Z,1003.54
2018-09-17T09:40:29.612Z,1003.47
2018-09-17T09:41:29.769Z,1003.57
2018-09-17T09:42:29.163Z,1003.49
2018-09-17T09:43:28.530Z,1003.44
2018-09-17T09:44:26.872Z,1003.44
2018-09-17T09:45:28.159Z,1003.52
2018-09-17T09:46:26.917Z,1003.46
2018-09-17T09:47:27.969Z,1003.5
2018-09-17T09:48:41.189Z,1003.55
2018-09-17T09:49:36.477Z,1003.55
2018-09-17T09:50:42.750Z,1003.44
2018-09-17T09:51:42.346Z,1003.43
2018-09-17T09:52:39.227Z,1003.47
2018-09-17T09:53:40.031Z,1003.43
2018-09-17T09:54:40.668Z,1003.41
2018-09-17T09:55:42.540Z,1003.4
2018-09-17T09:56:40.283Z,1003.4
2018-09-17T09:57:47.563Z,1003.35
2018-09-17T09:58:42.410Z,1003.38
2018-09-17T10:00:04.897Z,1003.35
2018-09-17T10:01:03.871Z,1003.4
2018-09-17T10:02:04.846Z,1003.37
2018-09-17T10:03:04.491Z,1003.37
2018-09-17T10:04:07.395Z,1003.37
2018-09-17T10:05:07.129Z,1003.38
2018-09-17T10:06:10.100Z,1003.32
2018-09-17T10:07:08.758Z,1003.35
2018-09-17T10:08:10.262Z,1003.37
2018-09-17T10:09:08.195Z,1003.38
2018-09-17T10:10:06.784Z,1003.3
2018-09-17T10:11:01.964Z,1003.32
2018-09-17T10:12:23.002Z,1003.23
2018-09-17T10:13:12.354Z,1003.24
2018-09-17T10:14:11.526Z,1003.3
2018-09-17T10:15:11.113Z,1003.26
2018-09-17T10:16:08.206Z,1003.23
2018-09-17T10:17:11.743Z,1003.26
2018-09-17T10:18:10.847Z,1003.25
2018-09-17T10:19:11.531Z,1003.25
2018-09-17T10:20:13.182Z,1003.25
2018-09-17T10:21:11.704Z,1003.16
2018-09-17T10:22:11.636Z,1003.22
2018-09-17T10:23:26.426Z,1003.19
2018-09-17T10:24:31.268Z,1003.2
2018-09-17T10:25:34.599Z,1003.21
2018-09-17T10:26:33.166Z,1003.22
2018-09-17T10:27:37.110Z,1003.16
2018-09-17T10:28:37.261Z,1003.16
2018-09-17T10:29:34.779Z,1003.14
2018-09-17T10:30:32.467Z,1003.14
2018-09-17T10:31:30.035Z,1003.13
2018-09-17T10:32:29.142Z,1003.13
2018-09-17T10:33:30.371Z,1003.1
2018-09-17T10:34:42.357Z,1003.08
2018-09-17T10:35:39.223Z,1003.08
2018-09-17T10:36:43.172Z,1003.08
2018-09-17T10:37:40.668Z,1003.05
2018-09-17T10:38:38.283Z,1003.1
2018-09-17T10:39:36.668Z,1002.99
2018-09-17T10:40:35.739Z,1003.07
2018-09-17T10:41:33.604Z,1003.04
2018-09-17T10:42:32.125Z,1003.05
2018-09-17T10:43:35.992Z,1003.05
2018-09-17T10:44:34.811Z,1003.05
2018-09-17T10:45:33.012Z,1002.98
2018-09-17T10:46:28.034Z,1003.11
2018-09-17T10:47:43.263Z,1003.04
2018-09-17T10:48:38.052Z,1002.99
2018-09-17T10:49:36.667Z,1002.95
2018-09-17T10:50:36.414Z,1002.98
2018-09-17T10:51:37.245Z,1002.9
2018-09-17T10:52:33.699Z,1002.96
2018-09-17T10:53:33.548Z,1003.01
2018-09-17T10:54:33.253Z,1003.05
2018-09-17T10:55:33.170Z,1002.99
2018-09-17T10:56:28.245Z,1002.93
2018-09-17T10:57:39.956Z,1003.02
2018-09-17T10:57:50.654Z,1002.96
2018-09-17T10:58:51.635Z,1002.95
2018-09-17T10:59:51.376Z,1003.02
2018-09-17T11:00:50.409Z,1002.93
2018-09-17T11:01:48.172Z,1003.02
2018-09-17T11:02:45.981Z,1002.98
2018-09-17T11:03:46.141Z,1003.02
2018-09-17T11:04:47.408Z,1002.99
2018-09-17T11:05:45.762Z,1002.95
2018-09-17T11:06:45.329Z,1002.98
2018-09-17T11:07:46.546Z,1002.84
2018-09-17T11:08:41.110Z,1002.84
2018-09-17T11:09:40.819Z,1002.95
2018-09-17T11:10:53.016Z,1002.86
2018-09-17T11:11:47.699Z,1002.83
2018-09-17T11:12:45.753Z,1002.81
2018-09-17T11:13:48.507Z,1002.86
2018-09-17T11:14:47.074Z,1002.94
2018-09-17T11:15:46.432Z,1002.87
2018-09-17T11:16:44.637Z,1002.78
2018-09-17T11:17:50.132Z,1002.81
2018-09-17T11:18:49.173Z,1002.81
2018-09-17T11:19:51.862Z,1002.71
2018-09-17T11:20:53.460Z,1002.78
2018-09-17T11:21:49.731Z,1002.8
2018-09-17T11:22:54.577Z,1002.88
2018-09-17T11:24:07.708Z,1002.75
2018-09-17T11:25:02.738Z,1002.75
2018-09-17T11:26:06.167Z,1002.81
2018-09-17T11:27:04.098Z,1002.75
2018-09-17T11:28:03.662Z,1002.84
2018-09-17T11:29:02.470Z,1002.81
2018-09-17T11:29:57.227Z,1002.84
2018-09-17T11:31:00.349Z,1002.78
2018-09-17T11:32:02.340Z,1002.78
2018-09-17T11:33:03.605Z,1002.8
2018-09-17T11:34:03.835Z,1002.75
2018-09-17T11:35:01.911Z,1002.81
2018-09-17T11:36:00.560Z,1002.84
2018-09-17T11:36:58.553Z,1002.84
2018-09-17T11:38:11.152Z,1002.81
2018-09-17T11:39:06.580Z,1002.77
2018-09-17T11:40:08.090Z,1002.71
2018-09-17T11:41:07.311Z,1002.72
2018-09-17T11:42:06.291Z,1002.68
2018-09-17T11:43:06.061Z,1002.69
2018-09-17T11:44:05.286Z,1002.71
2018-09-17T11:45:05.945Z,1002.75
2018-09-17T11:46:08.901Z,1002.8
2018-09-17T11:47:05.102Z,1002.71
2018-09-17T11:48:15.659Z,1002.75
2018-09-17T11:49:10.640Z,1002.74
2018-09-17T11:50:08.774Z,1002.71
2018-09-17T11:51:09.723Z,1002.71
2018-09-17T11:52:10.243Z,1002.71
2018-09-17T11:53:05.463Z,1002.72
2018-09-17T11:54:19.008Z,1002.72
2018-09-17T11:55:15.235Z,1002.62
2018-09-17T11:56:18.928Z,1002.62
2018-09-17T11:57:18.436Z,1002.69
2018-09-17T11:58:19.157Z,1002.63
2018-09-17T11:59:16.927Z,1002.62
2018-09-17T12:00:15.562Z,1002.66
2018-09-17T12:01:13.776Z,1002.62
2018-09-17T12:02:16.593Z,1002.66
2018-09-17T12:03:17.209Z,1002.57
2018-09-17T12:04:34.718Z,1002.62
2018-09-17T12:05:34.289Z,1002.59
2018-09-17T12:06:34.729Z,1002.62
2018-09-17T12:07:32.401Z,1002.59
2018-09-17T12:08:32.346Z,1002.58
2018-09-17T12:09:29.984Z,1002.52
2018-09-17T12:10:29.831Z,1002.55
2018-09-17T12:11:28.861Z,1002.5
2018-09-17T12:12:31.096Z,1002.55
2018-09-17T12:13:33.582Z,1002.55
2018-09-17T12:14:32.832Z,1002.53
2018-09-17T12:15:28.360Z,1002.56
2018-09-17T12:16:27.171Z,1002.56
2018-09-17T12:17:40.853Z,1002.44
2018-09-17T12:18:36.301Z,1002.46
2018-09-17T12:19:37.053Z,1002.46
2018-09-17T12:20:37.864Z,1002.46
2018-09-17T12:21:35.644Z,1002.53